Time;durP1;ratioP1;P1;durP2;ratioP2;P2;SDS_P1;SDS_P2;PMS_P1;PMS_P2;Temp;Humidity;BMP_temperature;BMP_pressure;BME280_temperature;BME280_humidity;BME280_pressure;Samples;Min_cycle;Max_cycle;Signal;HPM_P1;HPM_P2
2023/05/14 00:00:18;;;;;;;12.77;6.72;;;;;;;;;;13013057;19;20019;-62
2023/05/14 00:04:56;;;;;;;10.40;5.15;;;;;;;;;;13013048;19;20074;-62
2023/05/14 00:09:13;;;;;;;11.70;6.00;;;;;;;;;;13011374;19;20026;-62
2023/05/14 00:13:31;;;;;;;12.38;4.68;;;;;;;;;;13012262;19;20457;-63
2023/05/14 00:17:48;;;;;;;9.48;5.20;;;;;;;;;;13012341;19;20472;-62
2023/05/14 00:22:07;;;;;;;11.35;5.10;;;;;;;;;;13011987;19;20018;-63
2023/05/14 00:26:25;;;;;;;9.02;4.53;;;;;;;;;;13012150;19;20365;-62
2023/05/14 00:30:43;;;;;;;8.18;4.00;;;;;;;;;;13010782;19;20016;-62
2023/05/14 00:35:03;;;;;;;10.45;5.30;;;;;;;;;;13011288;19;20483;-62
2023/05/14 00:39:24;;;;;;;10.65;4.43;;;;;;;;;;13011424;19;20021;-62
2023/05/14 00:43:42;;;;;;;8.18;4.07;;;;;;;;;;13010856;19;20331;-62
2023/05/14 00:48:00;;;;;;;7.07;4.07;;;;;;;;;;13009939;19;20006;-61
2023/05/14 00:52:18;;;;;;;;;;;;;;;;;;13009876;19;20017;-61
2023/05/14 00:56:36;;;;;;;5.47;3.50;;;;;;;;;;13008867;19;19926;-61
2023/05/14 01:00:53;;;;;;;7.75;4.18;;;;;;;;;;13009013;19;20015;-61
2023/05/14 01:05:11;;;;;;;6.75;3.47;;;;;;;;;;13010934;19;20015;-61
2023/05/14 01:09:43;;;;;;;7.32;3.75;;;;;;;;;;13008558;19;20021;-61
2023/05/14 01:14:36;;;;;;;9.73;4.47;;;;;;;;;;13008412;19;20314;-63
2023/05/14 01:18:56;;;;;;;6.72;3.80;;;;;;;;;;13009058;19;20009;-62
2023/05/14 01:23:14;;;;;;;7.22;3.60;;;;;;;;;;13008100;19;19995;-62
2023/05/14 01:27:47;;;;;;;9.20;4.05;;;;;;;;;;13008844;19;20002;-61
2023/05/14 01:32:07;;;;;;;7.30;3.97;;;;;;;;;;13007603;19;19999;-61
2023/05/14 01:36:27;;;;;;;8.27;4.18;;;;;;;;;;13008145;19;20457;-62
2023/05/14 01:40:46;;;;;;;6.32;3.85;;;;;;;;;;13006296;19;20026;-62
2023/05/14 01:45:04;;;;;;;5.60;3.28;;;;;;;;;;13006458;19;20013;-62
2023/05/14 01:49:22;;;;;;;6.90;3.75;;;;;;;;;;13005811;19;20130;-62
2023/05/14 01:53:41;;;;;;;8.82;3.25;;;;;;;;;;13007248;19;20007;-61
2023/05/14 01:57:58;;;;;;;6.40;3.75;;;;;;;;;;13006412;19;20007;-62
2023/05/14 02:02:16;;;;;;;5.25;3.22;;;;;;;;;;13006630;19;20476;-62
2023/05/14 02:06:34;;;;;;;5.88;3.15;;;;;;;;;;13006515;19;20006;-63
2023/05/14 02:10:51;;;;;;;5.03;3.03;;;;;;;;;;13006079;19;20018;-62
2023/05/14 02:15:10;;;;;;;9.35;3.22;;;;;;;;;;13003128;19;20014;-62
2023/05/14 02:19:29;;;;;;;7.72;3.78;;;;;;;;;;13006529;19;20010;-62
2023/05/14 02:23:48;;;;;;;8.52;3.85;;;;;;;;;;13005706;19;20095;-62
2023/05/14 02:28:05;;;;;;;8.57;3.95;;;;;;;;;;13004589;19;20026;-62
2023/05/14 02:32:23;;;;;;;5.18;3.45;;;;;;;;;;13005381;19;20357;-63
2023/05/14 02:36:41;;;;;;;6.35;3.58;;;;;;;;;;13005504;19;19999;-63
2023/05/14 02:40:58;;;;;;;6.97;3.10;;;;;;;;;;13004914;19;20365;-61
2023/05/14 02:45:16;;;;;;;6.28;3.70;;;;;;;;;;13003942;19;20010;-62
2023/05/14 02:49:34;;;;;;;7.47;3.42;;;;;;;;;;13004647;19;20505;-62
2023/05/14 02:53:51;;;;;;;6.20;3.60;;;;;;;;;;13003862;19;20011;-61
2023/05/14 02:58:09;;;;;;;5.40;3.10;;;;;;;;;;13003183;19;20011;-61
2023/05/14 03:02:27;;;;;;;4.70;2.85;;;;;;;;;;13003903;19;20013;-61
2023/05/14 03:06:45;;;;;;;6.28;3.13;;;;;;;;;;13003550;19;20011;-62
2023/05/14 03:11:03;;;;;;;4.32;2.75;;;;;;;;;;13002165;19;19999;-62
2023/05/14 03:15:21;;;;;;;8.07;3.05;;;;;;;;;;13002982;19;20489;-62
2023/05/14 03:19:38;;;;;;;4.82;2.78;;;;;;;;;;13002533;19;20002;-62
2023/05/14 03:23:56;;;;;;;6.22;2.83;;;;;;;;;;13002447;19;20026;-62
2023/05/14 03:28:13;;;;;;;4.70;2.67;;;;;;;;;;13001113;19;20358;-62
2023/05/14 03:32:31;;;;;;;4.70;2.60;;;;;;;;;;13001890;19;20126;-62
2023/05/14 03:36:49;;;;;;;4.43;2.35;;;;;;;;;;13000375;19;20006;-61
2023/05/14 03:41:07;;;;;;;7.57;2.30;;;;;;;;;;13000981;19;20007;-62
2023/05/14 03:45:27;;;;;;;;;;;;;;;;;;13001800;19;20042;-62
2023/05/14 03:49:45;;;;;;;5.40;2.40;;;;;;;;;;13000094;19;19918;-62
2023/05/14 03:54:02;;;;;;;4.30;2.33;;;;;;;;;;12999866;19;20355;-62
2023/05/14 03:58:20;;;;;;;4.25;2.03;;;;;;;;;;13000544;19;20022;-62
2023/05/14 04:02:38;;;;;;;3.40;1.90;;;;;;;;;;13000373;19;20007;-62
2023/05/14 04:06:56;;;;;;;7.22;2.33;;;;;;;;;;12999888;19;20018;-62
2023/05/14 04:11:13;;;;;;;3.13;2.13;;;;;;;;;;12998616;19;20019;-62
2023/05/14 04:15:31;;;;;;;3.55;2.33;;;;;;;;;;12999976;19;20343;-62
2023/05/14 04:19:49;;;;;;;4.20;2.58;;;;;;;;;;12999926;19;20014;-63
2023/05/14 04:24:07;;;;;;;4.13;2.15;;;;;;;;;;12998770;19;19998;-63
2023/05/14 04:28:25;;;;;;;2.47;1.83;;;;;;;;;;12998814;19;20007;-62
2023/05/14 04:32:43;;;;;;;5.13;2.17;;;;;;;;;;12999693;19;20011;-62
2023/05/14 04:37:02;;;;;;;4.82;2.38;;;;;;;;;;13004986;19;20122;-62
2023/05/14 04:41:20;;;;;;;6.75;3.22;;;;;;;;;;13010953;19;20030;-62
2023/05/14 04:45:39;;;;;;;5.25;2.50;;;;;;;;;;13009247;19;20010;-63
2023/05/14 04:49:57;;;;;;;3.53;2.28;;;;;;;;;;13009692;19;20477;-62
2023/05/14 04:54:15;;;;;;;4.47;1.98;;;;;;;;;;13009548;19;20034;-62
2023/05/14 04:58:33;;;;;;;3.20;1.75;;;;;;;;;;13010557;19;20018;-62
2023/05/14 05:02:51;;;;;;;2.63;1.77;;;;;;;;;;13009802;19;20465;-62
2023/05/14 05:07:09;;;;;;;2.97;1.85;;;;;;;;;;13008717;19;20018;-62
2023/05/14 05:11:27;;;;;;;5.22;2.58;;;;;;;;;;13008898;19;20017;-63
2023/05/14 05:15:44;;;;;;;3.47;2.17;;;;;;;;;;13009481;19;20010;-62
2023/05/14 05:20:04;;;;;;;3.85;1.98;;;;;;;;;;13009286;19;20006;-62
2023/05/14 05:24:22;;;;;;;4.22;1.80;;;;;;;;;;13008777;19;20010;-63
2023/05/14 05:28:39;;;;;;;3.53;2.15;;;;;;;;;;13008431;19;20006;-62
2023/05/14 05:32:57;;;;;;;4.03;2.17;;;;;;;;;;13008246;19;20007;-63
2023/05/14 05:37:15;;;;;;;2.08;1.50;;;;;;;;;;13007136;19;20007;-63
2023/05/14 05:41:33;;;;;;;2.67;1.88;;;;;;;;;;13007939;19;20006;-63
2023/05/14 05:45:51;;;;;;;2.97;1.83;;;;;;;;;;13006631;19;20473;-62
2023/05/14 05:50:09;;;;;;;2.50;1.70;;;;;;;;;;13002995;19;20007;-62
2023/05/14 05:54:27;;;;;;;2.25;1.48;;;;;;;;;;13007501;19;20349;-62
2023/05/14 05:58:45;;;;;;;2.50;1.63;;;;;;;;;;13007387;19;20010;-62
2023/05/14 06:03:02;;;;;;;3.65;2.05;;;;;;;;;;13005808;19;20015;-63
2023/05/14 06:07:20;;;;;;;2.80;1.30;;;;;;;;;;13006011;19;20067;-63
2023/05/14 06:11:38;;;;;;;2.85;1.55;;;;;;;;;;13006656;19;20030;-63
2023/05/14 06:15:56;;;;;;;2.75;1.67;;;;;;;;;;13006169;19;20010;-63
2023/05/14 06:20:14;;;;;;;;;;;;;;;;;;13006043;19;20015;-62
2023/05/14 06:24:32;;;;;;;2.75;1.77;;;;;;;;;;13005756;19;20311;-63
2023/05/14 06:28:49;;;;;;;3.33;1.70;;;;;;;;;;13005328;19;20022;-63
2023/05/14 06:33:07;;;;;;;1.45;1.05;;;;;;;;;;13004210;19;20433;-63
2023/05/14 06:37:25;;;;;;;2.58;1.88;;;;;;;;;;13005336;19;20365;-63
2023/05/14 06:41:43;;;;;;;2.38;1.65;;;;;;;;;;13005192;19;20006;-63
2023/05/14 06:46:01;;;;;;;1.95;1.30;;;;;;;;;;13004111;19;20006;-62
2023/05/14 06:50:19;;;;;;;1.58;1.10;;;;;;;;;;13003693;19;20389;-62
2023/05/14 06:54:36;;;;;;;0.82;0.80;;;;;;;;;;13004130;19;20006;-62
2023/05/14 06:58:54;;;;;;;1.40;1.05;;;;;;;;;;13002843;19;20006;-62
2023/05/14 07:03:12;;;;;;;1.85;1.35;;;;;;;;;;13002865;19;20010;-62
2023/05/14 07:07:29;;;;;;;2.25;1.25;;;;;;;;;;13003930;19;20017;-62
2023/05/14 07:11:47;;;;;;;0.75;0.75;;;;;;;;;;13003233;19;20006;-62
2023/05/14 07:16:09;;;;;;;2.47;1.27;;;;;;;;;;13002137;19;20370;-62
2023/05/14 07:20:26;;;;;;;2.92;1.40;;;;;;;;;;13003078;19;20010;-62
2023/05/14 07:24:44;;;;;;;;;;;;;;;;;;13003080;19;20011;-63
2023/05/14 07:29:02;;;;;;;1.80;1.30;;;;;;;;;;13001348;19;19918;-63
2023/05/14 07:33:23;;;;;;;1.52;1.10;;;;;;;;;;13002309;19;20018;-62
2023/05/14 07:37:41;;;;;;;1.50;1.20;;;;;;;;;;13001138;19;20010;-62
2023/05/14 07:42:00;;;;;;;1.50;1.08;;;;;;;;;;13001570;19;20006;-62
2023/05/14 07:46:18;;;;;;;1.17;0.90;;;;;;;;;;13000887;19;20034;-62
2023/05/14 07:50:36;;;;;;;1.70;1.40;;;;;;;;;;13001455;19;20006;-62
2023/05/14 07:54:54;;;;;;;2.10;1.50;;;;;;;;;;13001083;19;20014;-62
2023/05/14 07:59:12;;;;;;;1.65;1.13;;;;;;;;;;13000508;19;20345;-62
2023/05/14 08:03:29;;;;;;;1.65;1.15;;;;;;;;;;13000551;19;20368;-65
2023/05/14 08:07:47;;;;;;;1.77;1.17;;;;;;;;;;12999989;19;20007;-65
2023/05/14 08:12:06;;;;;;;2.17;1.08;;;;;;;;;;13005479;19;19999;-67
2023/05/14 08:16:25;;;;;;;1.58;1.10;;;;;;;;;;13012583;19;20322;-65
2023/05/14 08:20:43;;;;;;;2.45;1.50;;;;;;;;;;13013261;19;20010;-66
2023/05/14 08:25:02;;;;;;;1.60;1.33;;;;;;;;;;13012532;19;20005;-65
2023/05/14 08:29:20;;;;;;;2.50;1.40;;;;;;;;;;13011254;19;19995;-65
2023/05/14 08:33:38;;;;;;;;;;;;;;;;;;13011984;19;20010;-66
2023/05/14 08:37:56;;;;;;;5.05;1.40;;;;;;;;;;13011035;19;20341;-66
2023/05/14 08:42:18;;;;;;;1.73;1.50;;;;;;;;;;13010823;19;20010;-66
2023/05/14 08:46:37;;;;;;;3.80;1.30;;;;;;;;;;13009039;19;20018;-66
2023/05/14 08:50:56;;;;;;;1.45;1.05;;;;;;;;;;13008984;19;20021;-66
2023/05/14 08:55:14;;;;;;;1.45;1.23;;;;;;;;;;13007655;19;20017;-65
2023/05/14 08:59:32;;;;;;;2.00;1.50;;;;;;;;;;13010193;19;20006;-65
2023/05/14 09:03:51;;;;;;;2.83;1.48;;;;;;;;;;13008014;19;20038;-65
2023/05/14 09:08:09;;;;;;;2.25;1.10;;;;;;;;;;13007237;19;20014;-65
2023/05/14 09:12:27;;;;;;;3.25;1.45;;;;;;;;;;13008353;19;20010;-66
2023/05/14 09:16:47;;;;;;;2.42;1.35;;;;;;;;;;13009068;19;20009;-65
2023/05/14 09:21:07;;;;;;;2.45;1.35;;;;;;;;;;13006825;19;20017;-65
2023/05/14 09:25:31;;;;;;;2.38;1.05;;;;;;;;;;13008368;19;20350;-65
2023/05/14 09:29:50;;;;;;;3.13;1.23;;;;;;;;;;13008540;19;20343;-65
2023/05/14 09:34:07;;;;;;;;;;;;;;;;;;13008699;19;20456;-65
2023/05/14 09:38:32;;;;;;;1.77;1.40;;;;;;;;;;13008861;19;19979;-65
2023/05/14 09:42:50;;;;;;;3.53;1.30;;;;;;;;;;13007620;19;20025;-65
2023/05/14 09:47:08;;;;;;;1.88;1.20;;;;;;;;;;13007083;19;20473;-65
2023/05/14 09:51:30;;;;;;;1.25;0.95;;;;;;;;;;13006713;19;20125;-67
2023/05/14 09:55:48;;;;;;;3.05;1.10;;;;;;;;;;13005649;19;20339;-65
2023/05/14 10:00:07;;;;;;;1.95;1.25;;;;;;;;;;13006212;19;20005;-65
2023/05/14 10:04:25;;;;;;;3.88;1.10;;;;;;;;;;13006543;19;20017;-65
2023/05/14 10:08:45;;;;;;;1.10;1.00;;;;;;;;;;13004868;19;19998;-64
2023/05/14 10:13:12;;;;;;;2.60;1.40;;;;;;;;;;13005132;19;20009;-65
2023/05/14 10:17:33;;;;;;;2.22;1.20;;;;;;;;;;13005027;19;20007;-65
2023/05/14 10:21:58;;;;;;;1.73;1.05;;;;;;;;;;13005698;19;20017;-66
2023/05/14 10:26:17;;;;;;;3.53;1.25;;;;;;;;;;13005225;19;20022;-65
2023/05/14 10:30:34;;;;;;;2.42;1.05;;;;;;;;;;13003509;19;20018;-65
2023/05/14 10:34:52;;;;;;;1.00;0.90;;;;;;;;;;13003039;19;20002;-65
2023/05/14 10:39:10;;;;;;;2.00;1.25;;;;;;;;;;13004245;19;20090;-64
2023/05/14 10:43:29;;;;;;;;;;;;;;;;;;13004038;19;20029;-64
2023/05/14 10:47:48;;;;;;;1.10;1.00;;;;;;;;;;13002963;19;19926;-65
2023/05/14 10:52:09;;;;;;;1.15;0.77;;;;;;;;;;13003704;19;20022;-65
2023/05/14 10:56:27;;;;;;;2.25;0.90;;;;;;;;;;13004409;19;20011;-65
2023/05/14 11:00:48;;;;;;;2.00;0.93;;;;;;;;;;13002205;19;20338;-65
2023/05/14 11:05:09;;;;;;;1.13;1.00;;;;;;;;;;13002961;19;20342;-65
2023/05/14 11:09:27;;;;;;;1.38;0.90;;;;;;;;;;13003357;19;20469;-64
2023/05/14 11:13:46;;;;;;;2.03;0.90;;;;;;;;;;13001657;19;20011;-65
2023/05/14 11:18:04;;;;;;;0.70;0.70;;;;;;;;;;12982063;19;20014;-65
2023/05/14 11:22:22;;;;;;;0.75;0.60;;;;;;;;;;13002413;19;20011;-65
2023/05/14 11:26:40;;;;;;;1.17;0.63;;;;;;;;;;13002599;19;20015;-64
2023/05/14 11:30:58;;;;;;;1.73;0.90;;;;;;;;;;13000278;19;20338;-64
2023/05/14 11:35:16;;;;;;;0.90;0.77;;;;;;;;;;12999796;19;20017;-66
2023/05/14 11:39:36;;;;;;;1.00;0.50;;;;;;;;;;13002153;19;20011;-65
2023/05/14 11:43:53;;;;;;;2.75;1.00;;;;;;;;;;12998766;19;20520;-66
2023/05/14 11:48:13;;;;;;;2.53;0.90;;;;;;;;;;13013316;19;20027;-67
2023/05/14 11:52:37;;;;;;;0.90;0.70;;;;;;;;;;13013421;19;20006;-66
2023/05/14 11:56:57;;;;;;;1.00;0.50;;;;;;;;;;13013602;19;20015;-66
2023/05/14 12:01:14;;;;;;;0.98;0.80;;;;;;;;;;13012836;19;20529;-65
2023/05/14 12:05:32;;;;;;;1.48;0.80;;;;;;;;;;13012623;19;20331;-66
2023/05/14 12:09:50;;;;;;;1.15;0.68;;;;;;;;;;13011877;19;20009;-66
2023/05/14 12:14:15;;;;;;;1.48;0.80;;;;;;;;;;13011234;19;20002;-66
2023/05/14 12:18:33;;;;;;;1.17;0.98;;;;;;;;;;13012677;19;20015;-67
2023/05/14 12:22:51;;;;;;;;;;;;;;;;;;13012784;19;20364;-66
2023/05/14 12:27:10;;;;;;;6.72;1.00;;;;;;;;;;13011378;19;19918;-67
2023/05/14 12:31:33;;;;;;;1.00;0.70;;;;;;;;;;13011903;19;20022;-67
2023/05/14 12:36:00;;;;;;;1.42;0.80;;;;;;;;;;13010409;19;20017;-66
2023/05/14 12:40:37;;;;;;;1.05;0.73;;;;;;;;;;13011520;19;20011;-66
2023/05/14 12:44:55;;;;;;;;;;;;;;;;;;13010685;19;20466;-67
2023/05/14 12:49:12;;;;;;;;;;;;;;;;;;13010253;19;19922;-66
2023/05/14 12:53:30;;;;;;;1.15;0.80;;;;;;;;;;13010779;19;20227;-66
2023/05/14 12:57:48;;;;;;;4.13;1.25;;;;;;;;;;13008476;19;20355;-66
2023/05/14 13:02:06;;;;;;;0.80;0.80;;;;;;;;;;13009477;19;20007;-65
2023/05/14 13:06:23;;;;;;;2.15;0.80;;;;;;;;;;13009659;19;20030;-66
2023/05/14 13:10:43;;;;;;;1.55;0.90;;;;;;;;;;13009726;19;20013;-65
2023/05/14 13:15:01;;;;;;;2.38;1.00;;;;;;;;;;13008363;19;20007;-66
2023/05/14 13:19:21;;;;;;;1.80;1.10;;;;;;;;;;13009079;19;20015;-65
2023/05/14 13:23:38;;;;;;;1.08;0.80;;;;;;;;;;13008680;19;20006;-65
2023/05/14 13:27:56;;;;;;;0.88;0.60;;;;;;;;;;13008541;19;20034;-65
2023/05/14 13:32:14;;;;;;;2.50;0.80;;;;;;;;;;13005420;19;20047;-65
2023/05/14 13:36:31;;;;;;;0.77;0.63;;;;;;;;;;13007820;19;20030;-65
2023/05/14 13:40:49;;;;;;;0.88;0.60;;;;;;;;;;13007616;19;20014;-65
2023/05/14 13:45:08;;;;;;;1.98;1.02;;;;;;;;;;13006507;19;20330;-66
2023/05/14 13:49:25;;;;;;;2.15;0.80;;;;;;;;;;13007593;19;20453;-65
2023/05/14 13:53:43;;;;;;;;;;;;;;;;;;13006766;19;20019;-67
2023/05/14 13:58:02;;;;;;;0.88;0.70;;;;;;;;;;13007112;19;19910;-66
2023/05/14 14:02:19;;;;;;;0.70;0.70;;;;;;;;;;13005287;19;20007;-66
2023/05/14 14:06:37;;;;;;;2.63;0.95;;;;;;;;;;13006552;19;20011;-66
2023/05/14 14:10:55;;;;;;;1.10;0.77;;;;;;;;;;13003086;19;20478;-66
2023/05/14 14:15:12;;;;;;;0.70;0.60;;;;;;;;;;13005952;19;20002;-65
2023/05/14 14:19:30;;;;;;;1.58;0.60;;;;;;;;;;13005875;19;20015;-66
2023/05/14 14:23:48;;;;;;;2.17;0.95;;;;;;;;;;13003300;19;20468;-66
2023/05/14 14:28:05;;;;;;;;;;;;;;;;;;13005360;19;20006;-65
2023/05/14 14:32:22;;;;;;;0.95;0.60;;;;;;;;;;13000294;19;19914;-65
2023/05/14 14:36:40;;;;;;;0.68;0.50;;;;;;;;;;13004295;19;20123;-65
2023/05/14 14:40:58;;;;;;;1.65;0.82;;;;;;;;;;13004860;19;20011;-65
2023/05/14 14:45:16;;;;;;;2.75;0.93;;;;;;;;;;13003449;19;20011;-65
2023/05/14 14:49:35;;;;;;;0.98;0.88;;;;;;;;;;13004474;19;20502;-65
2023/05/14 14:53:53;;;;;;;0.73;0.50;;;;;;;;;;13003653;19;20010;-65
2023/05/14 14:58:10;;;;;;;2.17;1.33;;;;;;;;;;13002983;19;20002;-65
2023/05/14 15:02:28;;;;;;;2.15;0.95;;;;;;;;;;13003421;19;20002;-66
2023/05/14 15:06:46;;;;;;;1.58;0.93;;;;;;;;;;13003186;19;20361;-65
2023/05/14 15:11:05;;;;;;;1.85;1.20;;;;;;;;;;13001926;19;20021;-65
2023/05/14 15:15:23;;;;;;;3.30;1.45;;;;;;;;;;13002845;19;20010;-66
2023/05/14 15:19:42;;;;;;;0.63;0.55;;;;;;;;;;13001838;19;20346;-66
2023/05/14 15:24:03;;;;;;;1.52;0.80;;;;;;;;;;13002126;19;19999;-65
2023/05/14 15:28:21;;;;;;;0.80;0.70;;;;;;;;;;13002342;19;20146;-65
2023/05/14 15:32:38;;;;;;;0.98;0.68;;;;;;;;;;13001760;19;20013;-64
2023/05/14 15:36:56;;;;;;;;;;;;;;;;;;13002995;19;20022;-66
2023/05/14 15:41:14;;;;;;;1.73;1.00;;;;;;;;;;13001007;19;19915;-65
2023/05/14 15:45:32;;;;;;;1.95;0.70;;;;;;;;;;13000546;19;20338;-65
2023/05/14 15:49:53;;;;;;;0.93;0.70;;;;;;;;;;13001230;19;20007;-66
2023/05/14 15:54:11;;;;;;;0.47;0.47;;;;;;;;;;12998601;19;20015;-65
2023/05/14 15:58:29;;;;;;;1.10;0.95;;;;;;;;;;13000897;19;20011;-65
2023/05/14 16:02:46;;;;;;;0.55;0.55;;;;;;;;;;13000207;19;20010;-65
2023/05/14 16:07:08;;;;;;;0.55;0.55;;;;;;;;;;12999631;19;20009;-65
2023/05/14 16:11:26;;;;;;;1.50;0.73;;;;;;;;;;13000175;19;20045;-65
2023/05/14 16:15:43;;;;;;;1.55;0.82;;;;;;;;;;12999721;19;20006;-67
2023/05/14 16:20:03;;;;;;;2.15;0.80;;;;;;;;;;12999849;19;20018;-65
2023/05/14 16:24:21;;;;;;;3.88;0.98;;;;;;;;;;12999145;19;20038;-65
2023/05/14 16:28:40;;;;;;;1.80;1.02;;;;;;;;;;12999247;19;20015;-65
2023/05/14 16:32:57;;;;;;;3.60;0.88;;;;;;;;;;13005157;19;20010;-65
2023/05/14 16:37:16;;;;;;;1.42;1.10;;;;;;;;;;13011078;19;20002;-66
2023/05/14 16:41:34;;;;;;;2.97;0.95;;;;;;;;;;13011090;19;20002;-65
2023/05/14 16:45:52;;;;;;;;;;;;;;;;;;13010801;19;20358;-65
2023/05/14 16:50:10;;;;;;;1.33;0.77;;;;;;;;;;13008531;19;20255;-65
2023/05/14 16:54:28;;;;;;;2.40;1.15;;;;;;;;;;12991573;19;20025;-66
2023/05/14 16:58:49;;;;;;;1.70;0.77;;;;;;;;;;13010360;19;20014;-65
2023/05/14 17:03:06;;;;;;;4.32;2.05;;;;;;;;;;13009685;19;20481;-66
2023/05/14 17:07:24;;;;;;;1.45;1.00;;;;;;;;;;13009773;19;20025;-66
2023/05/14 17:11:42;;;;;;;2.58;1.27;;;;;;;;;;13009087;19;20026;-65
2023/05/14 17:15:59;;;;;;;4.53;2.22;;;;;;;;;;13009477;19;20007;-66
2023/05/14 17:20:20;;;;;;;7.07;2.80;;;;;;;;;;13008844;19;20014;-66
2023/05/14 17:24:41;;;;;;;5.50;2.72;;;;;;;;;;13008109;19;20006;-66
2023/05/14 17:28:59;;;;;;;241.77;71.78;;;;;;;;;;13008862;19;20443;-65
2023/05/14 17:33:17;;;;;;;306.30;114.70;;;;;;;;;;13007522;19;20021;-65
2023/05/14 17:37:35;;;;;;;46.38;22.55;;;;;;;;;;13007912;19;20018;-65
2023/05/14 17:41:53;;;;;;;13.95;6.63;;;;;;;;;;13007287;19;20001;-65
2023/05/14 17:46:11;;;;;;;8.85;5.38;;;;;;;;;;13005889;19;20058;-65
2023/05/14 17:50:28;;;;;;;6.05;3.47;;;;;;;;;;13007703;19;20029;-64
2023/05/14 17:54:46;;;;;;;15.77;7.13;;;;;;;;;;13007341;19;20034;-65
2023/05/14 17:59:04;;;;;;;9.60;5.97;;;;;;;;;;13006752;19;20465;-65
2023/05/14 18:03:22;;;;;;;11.32;6.55;;;;;;;;;;13008131;19;20045;-65
2023/05/14 18:07:40;;;;;;;9.57;5.07;;;;;;;;;;13007143;19;20009;-65
2023/05/14 18:11:58;;;;;;;11.10;4.93;;;;;;;;;;13005585;19;20013;-65
2023/05/14 18:16:15;;;;;;;31.10;13.95;;;;;;;;;;13006311;19;20437;-65
2023/05/14 18:20:33;;;;;;;15.50;7.13;;;;;;;;;;13004664;19;20013;-67
2023/05/14 18:24:51;;;;;;;6.15;2.95;;;;;;;;;;13006102;19;20010;-66
2023/05/14 18:29:09;;;;;;;15.45;4.75;;;;;;;;;;13005155;19;20010;-64
2023/05/14 18:33:28;;;;;;;7.68;3.30;;;;;;;;;;13003539;19;20022;-64
2023/05/14 18:37:46;;;;;;;30.30;9.48;;;;;;;;;;13004336;19;20042;-65
2023/05/14 18:42:04;;;;;;;159.38;39.05;;;;;;;;;;13003740;19;19998;-65
2023/05/14 18:46:22;;;;;;;114.80;35.67;;;;;;;;;;13003303;19;20032;-65
2023/05/14 18:50:40;;;;;;;3.60;2.20;;;;;;;;;;13003388;19;20021;-66
2023/05/14 18:54:58;;;;;;;3.67;2.35;;;;;;;;;;13001469;19;20011;-65
2023/05/14 18:59:15;;;;;;;3.47;1.88;;;;;;;;;;13002833;19;20009;-67
2023/05/14 19:03:33;;;;;;;6.88;2.92;;;;;;;;;;13003401;19;20013;-71
2023/05/14 19:07:51;;;;;;;7.47;3.45;;;;;;;;;;13004137;19;20011;-69
2023/05/14 19:12:09;;;;;;;6.78;3.20;;;;;;;;;;13002237;19;20011;-68
2023/05/14 19:16:26;;;;;;;28.88;11.93;;;;;;;;;;13001675;19;20033;-68
2023/05/14 19:20:45;;;;;;;64.15;25.63;;;;;;;;;;13002909;19;20020;-68
2023/05/14 19:25:03;;;;;;;73.90;31.52;;;;;;;;;;13002982;19;20002;-67
2023/05/14 19:29:24;;;;;;;26.15;13.95;;;;;;;;;;13002869;19;20027;-67
2023/05/14 19:33:42;;;;;;;32.90;12.85;;;;;;;;;;13002309;19;20333;-67
2023/05/14 19:38:00;;;;;;;65.35;23.92;;;;;;;;;;13001418;19;20009;-67
2023/05/14 19:42:17;;;;;;;16.58;6.90;;;;;;;;;;13000433;19;20014;-67
2023/05/14 19:46:35;;;;;;;64.85;24.98;;;;;;;;;;13001122;19;20010;-67
2023/05/14 19:50:53;;;;;;;80.13;26.10;;;;;;;;;;13001146;19;20007;-67
2023/05/14 19:55:10;;;;;;;18.45;7.80;;;;;;;;;;12999664;19;20030;-68
2023/05/14 19:59:28;;;;;;;12.95;7.90;;;;;;;;;;13000717;19;20111;-67
2023/05/14 20:03:46;;;;;;;23.25;12.32;;;;;;;;;;12998828;19;20013;-67
2023/05/14 20:08:06;;;;;;;;;;;;;;;;;;13007183;19;20335;-68
2023/05/14 20:12:24;;;;;;;3.17;2.00;;;;;;;;;;13009730;19;19918;-67
2023/05/14 20:16:42;;;;;;;7.63;2.88;;;;;;;;;;13013277;19;20007;-67
2023/05/14 20:21:00;;;;;;;3.47;1.85;;;;;;;;;;13013299;19;20015;-67
2023/05/14 20:25:17;;;;;;;2.95;2.45;;;;;;;;;;13012255;19;20011;-67
2023/05/14 20:29:35;;;;;;;3.47;1.70;;;;;;;;;;13012341;19;20013;-67
2023/05/14 20:33:56;;;;;;;4.07;2.72;;;;;;;;;;13011438;19;20506;-67
2023/05/14 20:38:13;;;;;;;2.50;1.92;;;;;;;;;;13010670;19;20007;-66
2023/05/14 20:42:31;;;;;;;6.28;2.25;;;;;;;;;;13010880;19;20014;-66
2023/05/14 20:46:49;;;;;;;2.55;1.70;;;;;;;;;;13011278;19;20462;-66
2023/05/14 20:51:07;;;;;;;3.22;1.90;;;;;;;;;;13010550;19;20022;-66
2023/05/14 20:55:25;;;;;;;3.08;2.25;;;;;;;;;;13010362;19;20090;-66
2023/05/14 20:59:44;;;;;;;2.92;1.77;;;;;;;;;;13010976;19;20026;-66
2023/05/14 21:04:02;;;;;;;3.55;1.33;;;;;;;;;;13007861;19;20002;-66
2023/05/14 21:08:20;;;;;;;;;;;;;;;;;;13010447;19;20026;-66
2023/05/14 21:12:38;;;;;;;2.42;1.65;;;;;;;;;;13008809;19;19957;-66
2023/05/14 21:16:58;;;;;;;2.85;1.92;;;;;;;;;;13008499;19;20501;-65
2023/05/14 21:21:15;;;;;;;2.15;1.52;;;;;;;;;;13008333;19;20014;-65
2023/05/14 21:25:33;;;;;;;4.78;2.00;;;;;;;;;;13008418;19;19994;-66
2023/05/14 21:29:51;;;;;;;3.15;1.88;;;;;;;;;;13009782;19;20006;-65
2023/05/14 21:34:08;;;;;;;4.68;1.88;;;;;;;;;;13006914;19;20017;-65
2023/05/14 21:38:26;;;;;;;3.92;1.85;;;;;;;;;;13007979;19;20015;-65
2023/05/14 21:42:44;;;;;;;3.33;1.95;;;;;;;;;;13006726;19;20021;-65
2023/05/14 21:47:02;;;;;;;3.53;1.67;;;;;;;;;;13006938;19;20014;-66
2023/05/14 21:51:20;;;;;;;3.60;2.17;;;;;;;;;;13005963;19;20017;-65
2023/05/14 21:55:38;;;;;;;6.95;3.03;;;;;;;;;;13007276;19;20002;-65
2023/05/14 21:59:56;;;;;;;4.40;1.65;;;;;;;;;;13007006;19;20007;-65
2023/05/14 22:04:15;;;;;;;3.90;1.95;;;;;;;;;;13004532;19;20457;-65
2023/05/14 22:08:32;;;;;;;4.10;1.45;;;;;;;;;;13006521;19;20025;-66
2023/05/14 22:12:53;;;;;;;3.10;1.08;;;;;;;;;;13006536;19;20013;-66
2023/05/14 22:17:11;;;;;;;3.42;1.63;;;;;;;;;;13005644;19;20339;-66
2023/05/14 22:21:29;;;;;;;3.20;1.48;;;;;;;;;;13006215;19;20420;-65
2023/05/14 22:25:47;;;;;;;4.65;1.80;;;;;;;;;;13005240;19;20036;-65
2023/05/14 22:30:07;;;;;;;3.22;1.65;;;;;;;;;;13002382;19;19998;-65
2023/05/14 22:34:24;;;;;;;2.97;1.70;;;;;;;;;;13004873;19;20017;-65
2023/05/14 22:38:42;;;;;;;2.38;1.67;;;;;;;;;;13005349;19;20011;-65
2023/05/14 22:43:00;;;;;;;;;;;;;;;;;;13004690;19;20038;-65
2023/05/14 22:47:18;;;;;;;3.60;1.65;;;;;;;;;;13004571;19;19926;-65
2023/05/14 22:51:35;;;;;;;2.55;1.52;;;;;;;;;;13004915;19;20015;-65
2023/05/14 22:55:53;;;;;;;3.47;1.70;;;;;;;;;;13003271;19;20006;-65
2023/05/14 23:00:13;;;;;;;4.13;1.42;;;;;;;;;;13004234;19;20335;-65
2023/05/14 23:04:30;;;;;;;6.85;1.42;;;;;;;;;;13002015;19;20018;-65
2023/05/14 23:08:48;;;;;;;2.85;1.05;;;;;;;;;;13003634;19;20014;-65
2023/05/14 23:13:06;;;;;;;2.42;1.50;;;;;;;;;;13001949;19;20010;-66
2023/05/14 23:17:24;;;;;;;3.17;1.40;;;;;;;;;;13003396;19;20018;-66
2023/05/14 23:21:42;;;;;;;;;;;;;;;;;;13003631;19;20077;-66
2023/05/14 23:25:59;;;;;;;3.30;1.60;;;;;;;;;;13002622;19;20330;-66
2023/05/14 23:30:17;;;;;;;2.13;1.30;;;;;;;;;;13000966;19;20011;-66
2023/05/14 23:34:35;;;;;;;3.17;1.48;;;;;;;;;;13001955;19;20026;-66
2023/05/14 23:38:52;;;;;;;2.17;1.25;;;;;;;;;;13002573;19;20137;-66
2023/05/14 23:43:10;;;;;;;3.17;1.70;;;;;;;;;;12999740;19;20034;-66
2023/05/14 23:47:28;;;;;;;4.03;1.60;;;;;;;;;;13001374;19;20017;-66
2023/05/14 23:51:45;;;;;;;2.70;1.50;;;;;;;;;;12999975;19;20046;-66
2023/05/14 23:56:03;;;;;;;1.23;0.90;;;;;;;;;;12999953;19;20002;-66
